sensor_id;sensor_type;location;lat;lon;timestamp;P1;durP1;ratioP1;P2;durP2;ratioP2
39896;SDS011;25567;48.276;14.242;2023-02-28T00:00:36;18.45;;;7.68;;
39896;SDS011;25567;48.276;14.242;2023-02-28T00:03:03;16.52;;;6.70;;
39896;SDS011;25567;48.276;14.242;2023-02-28T00:05:31;15.75;;;7.35;;
39896;SDS011;25567;48.276;14.242;2023-02-28T00:07:58;15.77;;;7.05;;
39896;SDS011;25567;48.276;14.242;2023-02-28T00:10:26;15.52;;;6.85;;
39896;SDS011;25567;48.276;14.242;2023-02-28T00:12:55;17.33;;;7.20;;
39896;SDS011;25567;48.276;14.242;2023-02-28T00:15:25;15.10;;;6.55;;
39896;SDS011;25567;48.276;14.242;2023-02-28T00:17:52;13.48;;;6.47;;
39896;SDS011;25567;48.276;14.242;2023-02-28T00:20:19;17.02;;;7.18;;
39896;SDS011;25567;48.276;14.242;2023-02-28T00:22:47;16.02;;;6.97;;
39896;SDS011;25567;48.276;14.242;2023-02-28T00:25:16;18.95;;;8.13;;
39896;SDS011;25567;48.276;14.242;2023-02-28T00:27:45;15.10;;;7.20;;
39896;SDS011;25567;48.276;14.242;2023-02-28T00:30:13;17.55;;;7.15;;
39896;SDS011;25567;48.276;14.242;2023-02-28T00:32:42;21.65;;;7.70;;
39896;SDS011;25567;48.276;14.242;2023-02-28T00:35:09;16.67;;;7.30;;
39896;SDS011;25567;48.276;14.242;2023-02-28T00:37:37;20.85;;;8.25;;
39896;SDS011;25567;48.276;14.242;2023-02-28T00:40:05;16.00;;;7.45;;
39896;SDS011;25567;48.276;14.242;2023-02-28T00:42:33;17.00;;;7.65;;
39896;SDS011;25567;48.276;14.242;2023-02-28T00:45:01;22.48;;;9.25;;
39896;SDS011;25567;48.276;14.242;2023-02-28T00:47:27;19.25;;;7.78;;
39896;SDS011;25567;48.276;14.242;2023-02-28T00:49:54;19.45;;;7.68;;
39896;SDS011;25567;48.276;14.242;2023-02-28T00:52:21;19.13;;;8.50;;
39896;SDS011;25567;48.276;14.242;2023-02-28T00:54:47;19.35;;;7.88;;
39896;SDS011;25567;48.276;14.242;2023-02-28T00:57:14;19.73;;;7.82;;
39896;SDS011;25567;48.276;14.242;2023-02-28T00:59:41;23.67;;;9.02;;
39896;SDS011;25567;48.276;14.242;2023-02-28T01:02:07;20.92;;;8.40;;
39896;SDS011;25567;48.276;14.242;2023-02-28T01:04:34;18.45;;;8.35;;
39896;SDS011;25567;48.276;14.242;2023-02-28T01:07:01;18.75;;;7.88;;
39896;SDS011;25567;48.276;14.242;2023-02-28T01:09:27;19.08;;;7.15;;
39896;SDS011;25567;48.276;14.242;2023-02-28T01:11:54;18.30;;;7.93;;
39896;SDS011;25567;48.276;14.242;2023-02-28T01:14:21;20.33;;;8.65;;
39896;SDS011;25567;48.276;14.242;2023-02-28T01:16:48;18.02;;;8.25;;
39896;SDS011;25567;48.276;14.242;2023-02-28T01:19:15;20.80;;;8.27;;
39896;SDS011;25567;48.276;14.242;2023-02-28T01:21:41;22.50;;;8.68;;
39896;SDS011;25567;48.276;14.242;2023-02-28T01:24:08;17.77;;;8.27;;
39896;SDS011;25567;48.276;14.242;2023-02-28T01:26:35;20.83;;;8.75;;
39896;SDS011;25567;48.276;14.242;2023-02-28T01:29:02;19.27;;;8.23;;
39896;SDS011;25567;48.276;14.242;2023-02-28T01:31:29;22.73;;;8.88;;
39896;SDS011;25567;48.276;14.242;2023-02-28T01:33:56;19.70;;;7.93;;
39896;SDS011;25567;48.276;14.242;2023-02-28T01:36:23;19.13;;;8.10;;
39896;SDS011;25567;48.276;14.242;2023-02-28T01:38:51;18.20;;;7.63;;
39896;SDS011;25567;48.276;14.242;2023-02-28T01:41:20;23.35;;;8.13;;
39896;SDS011;25567;48.276;14.242;2023-02-28T01:46:16;23.80;;;8.52;;
39896;SDS011;25567;48.276;14.242;2023-02-28T01:48:45;16.42;;;7.53;;
39896;SDS011;25567;48.276;14.242;2023-02-28T01:51:14;22.08;;;8.00;;
39896;SDS011;25567;48.276;14.242;2023-02-28T01:53:47;18.75;;;8.50;;
39896;SDS011;25567;48.276;14.242;2023-02-28T01:56:18;18.00;;;7.88;;
39896;SDS011;25567;48.276;14.242;2023-02-28T01:58:49;21.20;;;8.02;;
39896;SDS011;25567;48.276;14.242;2023-02-28T02:01:19;24.02;;;8.23;;
39896;SDS011;25567;48.276;14.242;2023-02-28T02:03:49;16.95;;;7.95;;
39896;SDS011;25567;48.276;14.242;2023-02-28T02:06:22;20.10;;;7.82;;
39896;SDS011;25567;48.276;14.242;2023-02-28T02:08:51;24.27;;;8.68;;
39896;SDS011;25567;48.276;14.242;2023-02-28T02:11:19;19.25;;;7.88;;
39896;SDS011;25567;48.276;14.242;2023-02-28T02:14:07;18.52;;;8.45;;
39896;SDS011;25567;48.276;14.242;2023-02-28T02:19:20;18.25;;;7.30;;
39896;SDS011;25567;48.276;14.242;2023-02-28T02:22:09;19.92;;;8.30;;
39896;SDS011;25567;48.276;14.242;2023-02-28T02:30:39;20.02;;;8.05;;
39896;SDS011;25567;48.276;14.242;2023-02-28T02:35:49;20.73;;;8.30;;
39896;SDS011;25567;48.276;14.242;2023-02-28T02:38:27;23.23;;;8.27;;
39896;SDS011;25567;48.276;14.242;2023-02-28T02:46:27;19.17;;;7.82;;
39896;SDS011;25567;48.276;14.242;2023-02-28T02:51:26;16.67;;;7.07;;
39896;SDS011;25567;48.276;14.242;2023-02-28T02:53:58;19.88;;;7.65;;
39896;SDS011;25567;48.276;14.242;2023-02-28T02:56:31;20.30;;;7.75;;
39896;SDS011;25567;48.276;14.242;2023-02-28T02:59:02;22.42;;;7.35;;
39896;SDS011;25567;48.276;14.242;2023-02-28T03:01:32;24.65;;;8.93;;
39896;SDS011;25567;48.276;14.242;2023-02-28T03:04:07;19.63;;;7.45;;
39896;SDS011;25567;48.276;14.242;2023-02-28T03:06:37;18.63;;;7.78;;
39896;SDS011;25567;48.276;14.242;2023-02-28T03:09:04;21.00;;;7.57;;
39896;SDS011;25567;48.276;14.242;2023-02-28T03:11:31;22.65;;;8.38;;
39896;SDS011;25567;48.276;14.242;2023-02-28T03:16:29;21.77;;;7.80;;
39896;SDS011;25567;48.276;14.242;2023-02-28T03:19:08;19.90;;;7.43;;
39896;SDS011;25567;48.276;14.242;2023-02-28T03:27:27;17.85;;;7.13;;
39896;SDS011;25567;48.276;14.242;2023-02-28T03:32:41;20.70;;;7.68;;
39896;SDS011;25567;48.276;14.242;2023-02-28T03:35:18;18.33;;;7.47;;
39896;SDS011;25567;48.276;14.242;2023-02-28T03:37:50;18.45;;;7.82;;
39896;SDS011;25567;48.276;14.242;2023-02-28T03:40:23;20.17;;;7.93;;
39896;SDS011;25567;48.276;14.242;2023-02-28T03:42:57;20.88;;;7.78;;
39896;SDS011;25567;48.276;14.242;2023-02-28T03:45:30;23.15;;;8.40;;
39896;SDS011;25567;48.276;14.242;2023-02-28T03:48:02;25.42;;;8.70;;
39896;SDS011;25567;48.276;14.242;2023-02-28T03:50:35;20.60;;;8.13;;
39896;SDS011;25567;48.276;14.242;2023-02-28T03:53:14;24.42;;;8.68;;
39896;SDS011;25567;48.276;14.242;2023-02-28T03:55:51;22.15;;;8.77;;
39896;SDS011;25567;48.276;14.242;2023-02-28T03:58:26;20.92;;;8.02;;
39896;SDS011;25567;48.276;14.242;2023-02-28T04:01:03;16.90;;;7.78;;
39896;SDS011;25567;48.276;14.242;2023-02-28T04:03:36;22.48;;;8.55;;
39896;SDS011;25567;48.276;14.242;2023-02-28T04:06:05;20.55;;;8.43;;
39896;SDS011;25567;48.276;14.242;2023-02-28T04:08:34;22.40;;;8.05;;
39896;SDS011;25567;48.276;14.242;2023-02-28T04:11:03;20.95;;;7.95;;
39896;SDS011;25567;48.276;14.242;2023-02-28T04:13:34;18.23;;;7.97;;
39896;SDS011;25567;48.276;14.242;2023-02-28T04:16:01;22.67;;;8.60;;
39896;SDS011;25567;48.276;14.242;2023-02-28T04:18:28;24.52;;;8.60;;
39896;SDS011;25567;48.276;14.242;2023-02-28T04:20:54;19.73;;;8.07;;
39896;SDS011;25567;48.276;14.242;2023-02-28T04:23:21;21.33;;;7.75;;
39896;SDS011;25567;48.276;14.242;2023-02-28T04:25:47;21.73;;;8.27;;
39896;SDS011;25567;48.276;14.242;2023-02-28T04:28:15;22.50;;;8.90;;
39896;SDS011;25567;48.276;14.242;2023-02-28T04:30:42;17.65;;;7.53;;
39896;SDS011;25567;48.276;14.242;2023-02-28T04:33:08;20.58;;;7.43;;
39896;SDS011;25567;48.276;14.242;2023-02-28T04:35:35;21.00;;;8.23;;
39896;SDS011;25567;48.276;14.242;2023-02-28T04:38:02;22.25;;;8.35;;
39896;SDS011;25567;48.276;14.242;2023-02-28T04:40:28;33.97;;;8.32;;
39896;SDS011;25567;48.276;14.242;2023-02-28T04:42:55;21.42;;;7.72;;
39896;SDS011;25567;48.276;14.242;2023-02-28T04:45:22;19.95;;;7.50;;
39896;SDS011;25567;48.276;14.242;2023-02-28T04:47:48;18.55;;;7.55;;
39896;SDS011;25567;48.276;14.242;2023-02-28T04:50:15;19.95;;;7.35;;
39896;SDS011;25567;48.276;14.242;2023-02-28T04:52:42;19.45;;;7.60;;
39896;SDS011;25567;48.276;14.242;2023-02-28T04:55:09;20.60;;;7.53;;
39896;SDS011;25567;48.276;14.242;2023-02-28T04:57:36;22.42;;;8.85;;
39896;SDS011;25567;48.276;14.242;2023-02-28T05:00:03;20.17;;;7.75;;
39896;SDS011;25567;48.276;14.242;2023-02-28T05:02:34;24.13;;;7.93;;
39896;SDS011;25567;48.276;14.242;2023-02-28T05:05:01;21.33;;;7.38;;
39896;SDS011;25567;48.276;14.242;2023-02-28T05:07:28;21.05;;;8.07;;
39896;SDS011;25567;48.276;14.242;2023-02-28T05:09:55;20.00;;;7.80;;
39896;SDS011;25567;48.276;14.242;2023-02-28T05:12:22;20.20;;;7.68;;
39896;SDS011;25567;48.276;14.242;2023-02-28T05:14:49;25.98;;;8.45;;
39896;SDS011;25567;48.276;14.242;2023-02-28T05:17:15;22.08;;;8.13;;
39896;SDS011;25567;48.276;14.242;2023-02-28T05:19:42;21.92;;;8.50;;
39896;SDS011;25567;48.276;14.242;2023-02-28T05:22:13;21.33;;;7.95;;
39896;SDS011;25567;48.276;14.242;2023-02-28T05:24:42;21.23;;;8.02;;
39896;SDS011;25567;48.276;14.242;2023-02-28T05:27:09;24.55;;;8.07;;
39896;SDS011;25567;48.276;14.242;2023-02-28T05:29:36;23.77;;;8.77;;
39896;SDS011;25567;48.276;14.242;2023-02-28T05:32:09;19.45;;;7.88;;
39896;SDS011;25567;48.276;14.242;2023-02-28T05:34:37;26.60;;;8.05;;
39896;SDS011;25567;48.276;14.242;2023-02-28T05:37:05;21.15;;;7.88;;
39896;SDS011;25567;48.276;14.242;2023-02-28T05:39:34;21.48;;;8.02;;
39896;SDS011;25567;48.276;14.242;2023-02-28T05:42:01;28.05;;;8.60;;
39896;SDS011;25567;48.276;14.242;2023-02-28T05:44:28;21.50;;;8.00;;
39896;SDS011;25567;48.276;14.242;2023-02-28T05:46:54;23.00;;;8.40;;
39896;SDS011;25567;48.276;14.242;2023-02-28T05:49:21;18.50;;;7.60;;
39896;SDS011;25567;48.276;14.242;2023-02-28T05:51:48;22.50;;;8.13;;
39896;SDS011;25567;48.276;14.242;2023-02-28T05:54:15;20.50;;;7.63;;
39896;SDS011;25567;48.276;14.242;2023-02-28T05:56:41;18.05;;;7.85;;
39896;SDS011;25567;48.276;14.242;2023-02-28T05:59:12;19.38;;;7.57;;
39896;SDS011;25567;48.276;14.242;2023-02-28T06:01:40;22.48;;;8.35;;
39896;SDS011;25567;48.276;14.242;2023-02-28T06:04:11;19.23;;;7.65;;
39896;SDS011;25567;48.276;14.242;2023-02-28T06:06:55;17.67;;;6.95;;
39896;SDS011;25567;48.276;14.242;2023-02-28T06:09:23;18.73;;;7.00;;
39896;SDS011;25567;48.276;14.242;2023-02-28T06:11:51;22.88;;;7.50;;
39896;SDS011;25567;48.276;14.242;2023-02-28T06:14:18;21.45;;;7.78;;
39896;SDS011;25567;48.276;14.242;2023-02-28T06:16:46;19.73;;;8.05;;
39896;SDS011;25567;48.276;14.242;2023-02-28T06:19:14;18.00;;;6.55;;
39896;SDS011;25567;48.276;14.242;2023-02-28T06:21:41;21.98;;;7.90;;
39896;SDS011;25567;48.276;14.242;2023-02-28T06:24:09;18.40;;;7.68;;
39896;SDS011;25567;48.276;14.242;2023-02-28T06:26:35;20.75;;;7.65;;
39896;SDS011;25567;48.276;14.242;2023-02-28T06:29:05;25.35;;;8.48;;
39896;SDS011;25567;48.276;14.242;2023-02-28T06:31:32;20.08;;;7.35;;
39896;SDS011;25567;48.276;14.242;2023-02-28T06:33:59;20.30;;;7.80;;
39896;SDS011;25567;48.276;14.242;2023-02-28T06:36:27;18.85;;;7.60;;
39896;SDS011;25567;48.276;14.242;2023-02-28T06:38:53;21.48;;;8.48;;
39896;SDS011;25567;48.276;14.242;2023-02-28T06:41:23;21.23;;;7.82;;
39896;SDS011;25567;48.276;14.242;2023-02-28T06:43:51;17.15;;;7.10;;
39896;SDS011;25567;48.276;14.242;2023-02-28T06:46:18;23.35;;;7.90;;
39896;SDS011;25567;48.276;14.242;2023-02-28T06:48:45;25.83;;;9.55;;
39896;SDS011;25567;48.276;14.242;2023-02-28T06:51:15;22.02;;;8.32;;
39896;SDS011;25567;48.276;14.242;2023-02-28T06:53:44;24.05;;;8.43;;
39896;SDS011;25567;48.276;14.242;2023-02-28T06:56:15;26.92;;;8.40;;
39896;SDS011;25567;48.276;14.242;2023-02-28T06:58:45;18.65;;;8.30;;
39896;SDS011;25567;48.276;14.242;2023-02-28T07:01:13;20.75;;;7.68;;
39896;SDS011;25567;48.276;14.242;2023-02-28T07:03:40;23.48;;;8.23;;
39896;SDS011;25567;48.276;14.242;2023-02-28T07:06:07;22.88;;;9.40;;
39896;SDS011;25567;48.276;14.242;2023-02-28T07:08:34;22.42;;;8.65;;
39896;SDS011;25567;48.276;14.242;2023-02-28T07:11:02;21.13;;;8.32;;
39896;SDS011;25567;48.276;14.242;2023-02-28T07:13:30;17.88;;;6.82;;
39896;SDS011;25567;48.276;14.242;2023-02-28T07:15:58;19.60;;;8.45;;
39896;SDS011;25567;48.276;14.242;2023-02-28T07:18:27;24.38;;;7.82;;
39896;SDS011;25567;48.276;14.242;2023-02-28T07:20:54;17.88;;;7.78;;
39896;SDS011;25567;48.276;14.242;2023-02-28T07:23:21;19.70;;;7.80;;
39896;SDS011;25567;48.276;14.242;2023-02-28T07:25:49;21.00;;;9.10;;
39896;SDS011;25567;48.276;14.242;2023-02-28T07:28:16;23.48;;;7.82;;
39896;SDS011;25567;48.276;14.242;2023-02-28T07:30:43;21.20;;;7.78;;
39896;SDS011;25567;48.276;14.242;2023-02-28T07:33:10;27.98;;;8.88;;
39896;SDS011;25567;48.276;14.242;2023-02-28T07:35:37;20.35;;;7.90;;
39896;SDS011;25567;48.276;14.242;2023-02-28T07:38:04;21.75;;;7.75;;
39896;SDS011;25567;48.276;14.242;2023-02-28T07:40:31;15.75;;;7.13;;
39896;SDS011;25567;48.276;14.242;2023-02-28T07:42:58;23.88;;;8.50;;
39896;SDS011;25567;48.276;14.242;2023-02-28T07:45:26;17.95;;;8.05;;
39896;SDS011;25567;48.276;14.242;2023-02-28T07:47:55;19.88;;;8.50;;
39896;SDS011;25567;48.276;14.242;2023-02-28T07:50:22;18.20;;;7.78;;
39896;SDS011;25567;48.276;14.242;2023-02-28T07:52:52;19.35;;;8.45;;
39896;SDS011;25567;48.276;14.242;2023-02-28T07:55:18;26.00;;;8.05;;
39896;SDS011;25567;48.276;14.242;2023-02-28T07:57:45;16.45;;;7.60;;
39896;SDS011;25567;48.276;14.242;2023-02-28T08:00:12;16.77;;;7.55;;
39896;SDS011;25567;48.276;14.242;2023-02-28T08:02:39;18.27;;;8.10;;
39896;SDS011;25567;48.276;14.242;2023-02-28T08:05:07;19.52;;;7.47;;
39896;SDS011;25567;48.276;14.242;2023-02-28T08:07:34;20.13;;;8.10;;
39896;SDS011;25567;48.276;14.242;2023-02-28T08:10:01;19.20;;;8.25;;
39896;SDS011;25567;48.276;14.242;2023-02-28T08:12:28;22.50;;;7.80;;
39896;SDS011;25567;48.276;14.242;2023-02-28T08:14:54;18.50;;;7.95;;
39896;SDS011;25567;48.276;14.242;2023-02-28T08:17:21;21.83;;;8.93;;
39896;SDS011;25567;48.276;14.242;2023-02-28T08:19:48;23.25;;;8.82;;
39896;SDS011;25567;48.276;14.242;2023-02-28T08:22:15;19.20;;;8.35;;
39896;SDS011;25567;48.276;14.242;2023-02-28T08:24:41;23.17;;;9.02;;
39896;SDS011;25567;48.276;14.242;2023-02-28T08:27:09;24.77;;;9.27;;
39896;SDS011;25567;48.276;14.242;2023-02-28T08:29:37;20.60;;;8.50;;
39896;SDS011;25567;48.276;14.242;2023-02-28T08:32:05;23.77;;;8.50;;
39896;SDS011;25567;48.276;14.242;2023-02-28T08:34:45;23.05;;;9.15;;
39896;SDS011;25567;48.276;14.242;2023-02-28T08:37:13;24.23;;;9.10;;
39896;SDS011;25567;48.276;14.242;2023-02-28T08:39:40;23.95;;;9.20;;
39896;SDS011;25567;48.276;14.242;2023-02-28T08:42:06;23.58;;;9.25;;
39896;SDS011;25567;48.276;14.242;2023-02-28T08:44:33;19.77;;;8.85;;
39896;SDS011;25567;48.276;14.242;2023-02-28T08:47:00;23.75;;;9.18;;
39896;SDS011;25567;48.276;14.242;2023-02-28T08:49:27;19.95;;;8.98;;
39896;SDS011;25567;48.276;14.242;2023-02-28T08:51:53;29.48;;;10.57;;
39896;SDS011;25567;48.276;14.242;2023-02-28T08:54:21;24.98;;;9.88;;
39896;SDS011;25567;48.276;14.242;2023-02-28T08:56:51;20.90;;;8.73;;
39896;SDS011;25567;48.276;14.242;2023-02-28T08:59:18;28.17;;;10.55;;
39896;SDS011;25567;48.276;14.242;2023-02-28T09:01:45;22.00;;;9.43;;
39896;SDS011;25567;48.276;14.242;2023-02-28T09:04:11;22.45;;;10.82;;
39896;SDS011;25567;48.276;14.242;2023-02-28T09:06:42;28.50;;;9.57;;
39896;SDS011;25567;48.276;14.242;2023-02-28T09:09:10;25.38;;;8.93;;
39896;SDS011;25567;48.276;14.242;2023-02-28T09:11:39;28.95;;;8.73;;
39896;SDS011;25567;48.276;14.242;2023-02-28T09:14:06;23.50;;;9.35;;
39896;SDS011;25567;48.276;14.242;2023-02-28T09:16:33;22.23;;;10.00;;
39896;SDS011;25567;48.276;14.242;2023-02-28T09:19:00;23.25;;;8.68;;
39896;SDS011;25567;48.276;14.242;2023-02-28T09:21:28;24.63;;;9.82;;
39896;SDS011;25567;48.276;14.242;2023-02-28T09:23:55;26.83;;;10.43;;
39896;SDS011;25567;48.276;14.242;2023-02-28T09:26:24;22.65;;;9.77;;
39896;SDS011;25567;48.276;14.242;2023-02-28T09:29:03;26.48;;;9.35;;
39896;SDS011;25567;48.276;14.242;2023-02-28T09:31:31;22.50;;;9.55;;
39896;SDS011;25567;48.276;14.242;2023-02-28T09:33:58;23.48;;;9.35;;
39896;SDS011;25567;48.276;14.242;2023-02-28T09:36:26;19.13;;;8.32;;
39896;SDS011;25567;48.276;14.242;2023-02-28T09:39:09;18.88;;;8.75;;
39896;SDS011;25567;48.276;14.242;2023-02-28T09:41:38;18.75;;;8.70;;
39896;SDS011;25567;48.276;14.242;2023-02-28T09:44:16;22.55;;;8.38;;
39896;SDS011;25567;48.276;14.242;2023-02-28T09:47:15;21.02;;;9.55;;
39896;SDS011;25567;48.276;14.242;2023-02-28T09:49:51;20.85;;;9.07;;
39896;SDS011;25567;48.276;14.242;2023-02-28T09:52:21;22.85;;;9.55;;
39896;SDS011;25567;48.276;14.242;2023-02-28T09:54:52;19.40;;;9.48;;
39896;SDS011;25567;48.276;14.242;2023-02-28T09:57:27;24.83;;;8.45;;
39896;SDS011;25567;48.276;14.242;2023-02-28T10:02:52;21.42;;;8.32;;
39896;SDS011;25567;48.276;14.242;2023-02-28T10:05:43;20.05;;;8.40;;
39896;SDS011;25567;48.276;14.242;2023-02-28T10:08:22;25.58;;;8.43;;
39896;SDS011;25567;48.276;14.242;2023-02-28T10:10:51;17.85;;;9.13;;
39896;SDS011;25567;48.276;14.242;2023-02-28T10:13:26;21.15;;;9.60;;
39896;SDS011;25567;48.276;14.242;2023-02-28T10:16:05;21.05;;;8.45;;
39896;SDS011;25567;48.276;14.242;2023-02-28T10:18:43;17.83;;;7.95;;
39896;SDS011;25567;48.276;14.242;2023-02-28T10:23:46;19.85;;;8.95;;
39896;SDS011;25567;48.276;14.242;2023-02-28T10:26:16;20.48;;;8.57;;
39896;SDS011;25567;48.276;14.242;2023-02-28T10:28:44;20.02;;;7.93;;
39896;SDS011;25567;48.276;14.242;2023-02-28T10:31:15;16.17;;;8.07;;
39896;SDS011;25567;48.276;14.242;2023-02-28T10:33:45;19.42;;;8.55;;
39896;SDS011;25567;48.276;14.242;2023-02-28T10:36:16;16.80;;;7.90;;
39896;SDS011;25567;48.276;14.242;2023-02-28T10:38:45;16.83;;;7.85;;
39896;SDS011;25567;48.276;14.242;2023-02-28T10:41:14;21.45;;;9.15;;
39896;SDS011;25567;48.276;14.242;2023-02-28T10:43:43;19.20;;;7.95;;
39896;SDS011;25567;48.276;14.242;2023-02-28T10:46:13;17.33;;;8.23;;
39896;SDS011;25567;48.276;14.242;2023-02-28T10:51:46;23.08;;;8.05;;
39896;SDS011;25567;48.276;14.242;2023-02-28T10:54:16;15.75;;;8.25;;
39896;SDS011;25567;48.276;14.242;2023-02-28T10:59:33;18.33;;;8.20;;
39896;SDS011;25567;48.276;14.242;2023-02-28T11:01:59;17.63;;;7.88;;
39896;SDS011;25567;48.276;14.242;2023-02-28T11:06:57;20.85;;;7.72;;
39896;SDS011;25567;48.276;14.242;2023-02-28T11:09:28;16.83;;;7.32;;
39896;SDS011;25567;48.276;14.242;2023-02-28T11:12:07;16.85;;;7.88;;
39896;SDS011;25567;48.276;14.242;2023-02-28T11:14:47;17.55;;;7.80;;
39896;SDS011;25567;48.276;14.242;2023-02-28T11:17:22;17.45;;;7.63;;
39896;SDS011;25567;48.276;14.242;2023-02-28T11:19:53;13.93;;;7.50;;
39896;SDS011;25567;48.276;14.242;2023-02-28T11:22:25;18.77;;;8.25;;
39896;SDS011;25567;48.276;14.242;2023-02-28T11:24:56;22.38;;;8.13;;
39896;SDS011;25567;48.276;14.242;2023-02-28T11:27:42;17.10;;;8.27;;
39896;SDS011;25567;48.276;14.242;2023-02-28T11:30:31;18.02;;;8.25;;
39896;SDS011;25567;48.276;14.242;2023-02-28T11:33:00;18.17;;;7.22;;
39896;SDS011;25567;48.276;14.242;2023-02-28T11:35:44;16.77;;;6.82;;
39896;SDS011;25567;48.276;14.242;2023-02-28T11:38:17;14.35;;;6.95;;
39896;SDS011;25567;48.276;14.242;2023-02-28T11:41:05;15.70;;;7.70;;
39896;SDS011;25567;48.276;14.242;2023-02-28T11:46:54;15.98;;;7.45;;
39896;SDS011;25567;48.276;14.242;2023-02-28T11:55:16;17.85;;;7.53;;
39896;SDS011;25567;48.276;14.242;2023-02-28T12:03:20;15.52;;;6.90;;
39896;SDS011;25567;48.276;14.242;2023-02-28T12:10:57;17.23;;;8.15;;
39896;SDS011;25567;48.276;14.242;2023-02-28T12:13:45;22.50;;;8.63;;
39896;SDS011;25567;48.276;14.242;2023-02-28T12:27:11;15.10;;;7.90;;
39896;SDS011;25567;48.276;14.242;2023-02-28T12:29:47;23.15;;;9.10;;
39896;SDS011;25567;48.276;14.242;2023-02-28T12:37:39;16.63;;;7.88;;
39896;SDS011;25567;48.276;14.242;2023-02-28T12:40:14;17.95;;;8.10;;
39896;SDS011;25567;48.276;14.242;2023-02-28T12:42:47;20.40;;;8.00;;
39896;SDS011;25567;48.276;14.242;2023-02-28T12:47:46;20.27;;;8.77;;
39896;SDS011;25567;48.276;14.242;2023-02-28T12:50:18;21.98;;;8.27;;
39896;SDS011;25567;48.276;14.242;2023-02-28T12:58:00;19.80;;;8.80;;
39896;SDS011;25567;48.276;14.242;2023-02-28T13:00:35;17.90;;;8.43;;
39896;SDS011;25567;48.276;14.242;2023-02-28T13:08:58;17.65;;;8.75;;
39896;SDS011;25567;48.276;14.242;2023-02-28T13:11:29;20.55;;;8.63;;
39896;SDS011;25567;48.276;14.242;2023-02-28T13:13:58;17.92;;;8.65;;
39896;SDS011;25567;48.276;14.242;2023-02-28T13:16:28;16.60;;;8.75;;
39896;SDS011;25567;48.276;14.242;2023-02-28T13:19:16;22.63;;;9.43;;
39896;SDS011;25567;48.276;14.242;2023-02-28T13:21:45;21.83;;;9.82;;
39896;SDS011;25567;48.276;14.242;2023-02-28T13:29:41;16.60;;;8.68;;
39896;SDS011;25567;48.276;14.242;2023-02-28T13:37:32;22.05;;;9.55;;
39896;SDS011;25567;48.276;14.242;2023-02-28T13:43:07;18.13;;;9.18;;
39896;SDS011;25567;48.276;14.242;2023-02-28T13:45:35;17.33;;;8.40;;
39896;SDS011;25567;48.276;14.242;2023-02-28T13:50:50;20.27;;;8.30;;
39896;SDS011;25567;48.276;14.242;2023-02-28T13:53:35;16.70;;;8.85;;
39896;SDS011;25567;48.276;14.242;2023-02-28T13:56:22;23.00;;;9.80;;
39896;SDS011;25567;48.276;14.242;2023-02-28T13:59:06;20.13;;;9.00;;
39896;SDS011;25567;48.276;14.242;2023-02-28T14:01:53;18.50;;;9.40;;
39896;SDS011;25567;48.276;14.242;2023-02-28T14:07:30;20.13;;;9.23;;
39896;SDS011;25567;48.276;14.242;2023-02-28T14:10:05;20.98;;;8.98;;
39896;SDS011;25567;48.276;14.242;2023-02-28T14:18:02;25.88;;;9.45;;
39896;SDS011;25567;48.276;14.242;2023-02-28T14:20:32;17.27;;;9.05;;
39896;SDS011;25567;48.276;14.242;2023-02-28T14:23:04;18.55;;;9.25;;
39896;SDS011;25567;48.276;14.242;2023-02-28T14:28:31;21.80;;;9.60;;
39896;SDS011;25567;48.276;14.242;2023-02-28T14:31:27;17.92;;;8.50;;
39896;SDS011;25567;48.276;14.242;2023-02-28T14:36:57;20.27;;;9.88;;
39896;SDS011;25567;48.276;14.242;2023-02-28T14:39:26;22.20;;;10.50;;
39896;SDS011;25567;48.276;14.242;2023-02-28T14:41:57;20.70;;;9.68;;
39896;SDS011;25567;48.276;14.242;2023-02-28T14:44:31;20.33;;;9.10;;
39896;SDS011;25567;48.276;14.242;2023-02-28T14:46:59;20.60;;;10.18;;
39896;SDS011;25567;48.276;14.242;2023-02-28T14:49:35;23.85;;;9.50;;
39896;SDS011;25567;48.276;14.242;2023-02-28T14:52:14;20.15;;;9.50;;
39896;SDS011;25567;48.276;14.242;2023-02-28T14:54:45;18.42;;;9.25;;
39896;SDS011;25567;48.276;14.242;2023-02-28T14:57:21;24.65;;;10.07;;
39896;SDS011;25567;48.276;14.242;2023-02-28T15:02:40;21.30;;;10.07;;
39896;SDS011;25567;48.276;14.242;2023-02-28T15:05:19;19.73;;;9.63;;
39896;SDS011;25567;48.276;14.242;2023-02-28T15:07:47;23.77;;;10.02;;
39896;SDS011;25567;48.276;14.242;2023-02-28T15:12:46;20.35;;;10.07;;
39896;SDS011;25567;48.276;14.242;2023-02-28T15:15:24;20.13;;;9.98;;
39896;SDS011;25567;48.276;14.242;2023-02-28T15:18:06;19.05;;;9.52;;
39896;SDS011;25567;48.276;14.242;2023-02-28T15:20:40;24.55;;;10.40;;
39896;SDS011;25567;48.276;14.242;2023-02-28T15:23:08;20.35;;;9.85;;
39896;SDS011;25567;48.276;14.242;2023-02-28T15:25:37;21.15;;;10.45;;
39896;SDS011;25567;48.276;14.242;2023-02-28T15:28:04;22.77;;;10.63;;
39896;SDS011;25567;48.276;14.242;2023-02-28T15:30:31;24.48;;;11.57;;
39896;SDS011;25567;48.276;14.242;2023-02-28T15:33:15;23.48;;;10.77;;
39896;SDS011;25567;48.276;14.242;2023-02-28T15:35:45;26.35;;;11.65;;
39896;SDS011;25567;48.276;14.242;2023-02-28T15:38:15;24.17;;;10.90;;
39896;SDS011;25567;48.276;14.242;2023-02-28T15:40:49;28.75;;;12.13;;
39896;SDS011;25567;48.276;14.242;2023-02-28T15:46:09;23.60;;;11.43;;
39896;SDS011;25567;48.276;14.242;2023-02-28T15:51:23;23.02;;;10.85;;
39896;SDS011;25567;48.276;14.242;2023-02-28T15:53:57;26.00;;;11.63;;
39896;SDS011;25567;48.276;14.242;2023-02-28T15:56:32;24.48;;;11.52;;
39896;SDS011;25567;48.276;14.242;2023-02-28T15:59:05;25.55;;;11.02;;
39896;SDS011;25567;48.276;14.242;2023-02-28T16:01:34;23.85;;;10.82;;
39896;SDS011;25567;48.276;14.242;2023-02-28T16:04:05;24.88;;;11.45;;
39896;SDS011;25567;48.276;14.242;2023-02-28T16:09:09;23.50;;;10.98;;
39896;SDS011;25567;48.276;14.242;2023-02-28T16:11:41;26.38;;;11.93;;
39896;SDS011;25567;48.276;14.242;2023-02-28T16:14:13;31.67;;;12.75;;
39896;SDS011;25567;48.276;14.242;2023-02-28T16:16:43;29.83;;;13.23;;
39896;SDS011;25567;48.276;14.242;2023-02-28T16:19:12;27.13;;;13.00;;
39896;SDS011;25567;48.276;14.242;2023-02-28T16:21:39;29.52;;;12.90;;
39896;SDS011;25567;48.276;14.242;2023-02-28T16:24:06;33.28;;;13.02;;
39896;SDS011;25567;48.276;14.242;2023-02-28T16:26:33;32.28;;;12.82;;
39896;SDS011;25567;48.276;14.242;2023-02-28T16:29:00;26.02;;;12.25;;
39896;SDS011;25567;48.276;14.242;2023-02-28T16:31:28;28.48;;;13.20;;
39896;SDS011;25567;48.276;14.242;2023-02-28T16:33:55;25.15;;;11.80;;
39896;SDS011;25567;48.276;14.242;2023-02-28T16:36:24;28.25;;;12.57;;
39896;SDS011;25567;48.276;14.242;2023-02-28T16:38:51;28.95;;;13.13;;
39896;SDS011;25567;48.276;14.242;2023-02-28T16:41:19;28.73;;;12.73;;
39896;SDS011;25567;48.276;14.242;2023-02-28T16:43:50;29.73;;;12.27;;
39896;SDS011;25567;48.276;14.242;2023-02-28T16:46:19;27.48;;;12.55;;
39896;SDS011;25567;48.276;14.242;2023-02-28T16:48:46;29.67;;;12.32;;
39896;SDS011;25567;48.276;14.242;2023-02-28T16:51:17;36.20;;;13.70;;
39896;SDS011;25567;48.276;14.242;2023-02-28T16:53:44;27.63;;;11.95;;
39896;SDS011;25567;48.276;14.242;2023-02-28T16:56:14;27.00;;;12.85;;
39896;SDS011;25567;48.276;14.242;2023-02-28T16:58:44;25.83;;;12.02;;